createdAt,value
2023-05-04T00:01:11.484Z,33.67
2023-05-04T00:03:38.989Z,36.15
2023-05-04T00:06:06.452Z,31.13
2023-05-04T00:08:33.529Z,35.80
2023-05-04T00:11:00.421Z,36.22
2023-05-04T00:13:27.363Z,32.15
2023-05-04T00:15:54.429Z,37.17
2023-05-04T00:18:21.572Z,34.40
2023-05-04T00:20:48.576Z,33.35
2023-05-04T00:23:15.587Z,34.10
2023-05-04T00:25:42.420Z,36.50
2023-05-04T00:28:09.348Z,38.33
2023-05-04T00:30:36.259Z,43.25
2023-05-04T00:33:03.324Z,35.05
2023-05-04T00:35:31.744Z,44.78
2023-05-04T00:37:58.681Z,33.28
2023-05-04T00:40:25.620Z,33.10
2023-05-04T00:42:52.658Z,34.13
2023-05-04T00:45:19.667Z,32.40
2023-05-04T00:47:46.653Z,32.22
2023-05-04T00:50:14.148Z,32.25
2023-05-04T00:52:43.738Z,36.75
2023-05-04T00:55:11.491Z,31.55
2023-05-04T00:57:39.438Z,32.30
2023-05-04T01:00:08.613Z,32.10
2023-05-04T01:02:35.655Z,34.05
2023-05-04T01:05:03.019Z,32.47
2023-05-04T01:07:44.599Z,37.92
2023-05-04T01:10:15.930Z,38.17
2023-05-04T01:13:01.129Z,33.85
2023-05-04T01:15:28.876Z,31.40
2023-05-04T01:17:55.904Z,33.95
2023-05-04T01:20:22.744Z,33.15
2023-05-04T01:22:49.695Z,34.22
2023-05-04T01:25:17.636Z,35.97
2023-05-04T01:27:52.343Z,34.70
2023-05-04T01:30:29.716Z,34.13
2023-05-04T01:32:58.810Z,36.67
2023-05-04T01:35:26.067Z,31.52
2023-05-04T01:37:54.012Z,32.38
2023-05-04T01:40:20.817Z,34.92
2023-05-04T01:42:47.655Z,35.40
2023-05-04T01:45:14.459Z,33.97
2023-05-04T01:47:41.613Z,33.22
2023-05-04T01:50:08.770Z,33.83
2023-05-04T01:52:35.595Z,31.05
2023-05-04T01:55:02.464Z,31.80
2023-05-04T01:57:29.301Z,33.80
2023-05-04T01:59:56.113Z,36.28
2023-05-04T02:02:23.386Z,35.65
2023-05-04T02:04:50.325Z,31.10
2023-05-04T02:07:17.175Z,35.63
2023-05-04T02:09:44.066Z,37.28
2023-05-04T02:12:10.847Z,30.85
2023-05-04T02:14:37.682Z,40.70
2023-05-04T02:17:04.464Z,33.58
2023-05-04T02:19:31.427Z,32.97
2023-05-04T02:21:58.216Z,33.38
2023-05-04T02:24:25.025Z,39.47
2023-05-04T02:26:51.794Z,32.80
2023-05-04T02:29:18.552Z,31.70
2023-05-04T02:31:45.385Z,37.22
2023-05-04T02:34:12.212Z,33.55
2023-05-04T02:36:39.001Z,35.33
2023-05-04T02:39:05.799Z,31.90
2023-05-04T02:41:32.598Z,29.48
2023-05-04T02:43:59.396Z,30.80
2023-05-04T02:46:26.872Z,33.22
2023-05-04T02:48:53.692Z,31.55
2023-05-04T02:51:20.639Z,34.45
2023-05-04T02:53:47.539Z,33.50
2023-05-04T02:56:14.326Z,28.77
2023-05-04T02:58:41.649Z,32.65
2023-05-04T03:01:08.498Z,37.03
2023-05-04T03:03:35.325Z,33.53
2023-05-04T03:06:02.169Z,30.17
2023-05-04T03:08:30.204Z,28.05
2023-05-04T03:10:57.184Z,30.02
2023-05-04T03:13:23.955Z,32.10
2023-05-04T03:15:50.796Z,30.80
2023-05-04T03:18:17.598Z,32.58
2023-05-04T03:20:44.365Z,33.58
2023-05-04T03:23:11.139Z,33.72
2023-05-04T03:25:37.960Z,32.00
2023-05-04T03:28:05.639Z,33.22
2023-05-04T03:30:32.434Z,35.92
2023-05-04T03:32:59.312Z,34.47
2023-05-04T03:35:26.164Z,35.03
2023-05-04T03:37:52.945Z,33.55
2023-05-04T03:40:24.245Z,34.42
2023-05-04T03:42:52.571Z,34.47
2023-05-04T03:45:19.879Z,37.75
2023-05-04T03:47:46.715Z,37.22
2023-05-04T03:50:13.640Z,44.40
2023-05-04T03:52:40.409Z,30.58
2023-05-04T03:55:07.719Z,36.30
2023-05-04T03:57:34.480Z,35.10
2023-05-04T04:00:01.270Z,37.60
2023-05-04T04:02:28.148Z,34.58
2023-05-04T04:04:55.054Z,34.15
2023-05-04T04:07:21.815Z,33.20
2023-05-04T04:09:48.618Z,34.30
2023-05-04T04:12:18.407Z,35.67
2023-05-04T04:14:45.525Z,35.78
2023-05-04T04:17:12.376Z,35.42
2023-05-04T04:19:39.149Z,34.63
2023-05-04T04:22:06.012Z,36.60
2023-05-04T04:24:33.598Z,35.60
2023-05-04T04:27:00.438Z,36.20
2023-05-04T04:29:27.331Z,32.25
2023-05-04T04:31:54.169Z,32.05
2023-05-04T04:34:20.969Z,33.63
2023-05-04T04:36:47.774Z,33.70
2023-05-04T04:39:17.034Z,33.50
2023-05-04T04:41:44.011Z,33.45
2023-05-04T04:44:11.680Z,32.45
2023-05-04T04:46:38.985Z,31.60
2023-05-04T04:49:05.940Z,36.30
2023-05-04T04:51:32.829Z,31.45
2023-05-04T04:53:59.854Z,32.15
2023-05-04T04:56:26.925Z,33.47
2023-05-04T04:58:53.708Z,29.90
2023-05-04T05:01:20.617Z,35.72
2023-05-04T05:03:47.584Z,29.38
2023-05-04T05:06:14.441Z,29.63
2023-05-04T05:08:42.634Z,30.40
2023-05-04T05:11:10.410Z,38.13
2023-05-04T05:13:37.285Z,28.80
2023-05-04T05:16:04.342Z,32.63
2023-05-04T05:18:31.255Z,27.63
2023-05-04T05:20:58.134Z,31.35
2023-05-04T05:23:25.010Z,24.40
2023-05-04T05:25:52.045Z,25.92
2023-05-04T05:28:19.226Z,23.58
2023-05-04T05:30:46.113Z,29.88
2023-05-04T05:33:12.964Z,25.30
2023-05-04T05:35:39.865Z,23.65
2023-05-04T05:38:06.971Z,25.15
2023-05-04T05:40:33.879Z,22.83
2023-05-04T05:43:00.753Z,22.70
2023-05-04T05:45:27.589Z,23.27
2023-05-04T05:47:54.467Z,24.10
2023-05-04T05:50:23.998Z,21.60
2023-05-04T05:52:51.199Z,24.70
2023-05-04T05:55:18.241Z,27.48
2023-05-04T05:57:45.013Z,23.90
2023-05-04T06:00:12.797Z,25.85
2023-05-04T06:02:39.890Z,22.10
2023-05-04T06:05:07.127Z,20.52
2023-05-04T06:07:34.054Z,21.67
2023-05-04T06:10:00.935Z,21.17
2023-05-04T06:12:28.067Z,22.07
2023-05-04T06:14:55.199Z,23.75
2023-05-04T06:17:22.182Z,26.83
2023-05-04T06:19:51.207Z,22.27
2023-05-04T06:22:18.164Z,21.07
2023-05-04T06:24:45.079Z,21.85
2023-05-04T06:27:11.990Z,20.37
2023-05-04T06:29:40.333Z,22.80
2023-05-04T06:32:08.811Z,21.07
2023-05-04T06:34:35.823Z,19.73
2023-05-04T06:37:03.669Z,19.73
2023-05-04T06:39:30.859Z,18.30
2023-05-04T06:41:58.521Z,15.50
2023-05-04T06:44:25.442Z,19.17
2023-05-04T06:46:52.433Z,15.07
2023-05-04T06:49:19.305Z,16.63
2023-05-04T06:51:46.207Z,12.87
2023-05-04T06:54:13.231Z,14.63
2023-05-04T06:56:40.132Z,15.37
2023-05-04T06:59:08.204Z,17.40
2023-05-04T07:01:35.143Z,17.73
2023-05-04T07:04:02.077Z,20.40
2023-05-04T07:06:29.569Z,20.63
2023-05-04T07:08:57.233Z,15.03
2023-05-04T07:11:24.041Z,14.77
2023-05-04T07:13:50.911Z,15.23
2023-05-04T07:16:17.816Z,21.90
2023-05-04T07:18:44.669Z,15.30
2023-05-04T07:21:26.839Z,15.70
2023-05-04T07:23:55.150Z,15.53
2023-05-04T07:26:22.587Z,12.47
2023-05-04T07:28:49.396Z,13.80
2023-05-04T07:31:16.319Z,12.10
2023-05-04T07:33:43.560Z,12.33
2023-05-04T07:36:10.534Z,14.07
2023-05-04T07:38:37.394Z,13.13
2023-05-04T07:41:04.332Z,13.30
2023-05-04T07:43:31.247Z,11.40
2023-05-04T07:45:58.121Z,10.23
2023-05-04T07:48:26.677Z,14.00
2023-05-04T07:50:54.039Z,10.17
2023-05-04T07:53:21.195Z,10.47
2023-05-04T07:55:48.602Z,11.63
2023-05-04T07:58:16.729Z,8.47
2023-05-04T08:00:43.727Z,12.10
2023-05-04T08:03:10.743Z,10.90
2023-05-04T08:05:37.731Z,10.60
2023-05-04T08:08:04.680Z,8.23
2023-05-04T08:10:31.571Z,8.10
2023-05-04T08:12:58.502Z,8.93
2023-05-04T08:15:25.432Z,8.87
2023-05-04T08:17:52.574Z,8.33
2023-05-04T08:20:20.666Z,7.60
2023-05-04T08:22:48.685Z,8.33
2023-05-04T08:25:15.985Z,8.40
2023-05-04T08:27:42.896Z,6.53
2023-05-04T08:30:10.194Z,7.90
2023-05-04T08:32:37.191Z,10.20
2023-05-04T08:35:04.317Z,7.97
2023-05-04T08:37:31.421Z,8.43
2023-05-04T08:39:58.390Z,9.50
2023-05-04T08:42:29.799Z,8.90
2023-05-04T08:44:57.522Z,8.20
2023-05-04T08:47:25.938Z,8.70
2023-05-04T08:49:54.401Z,8.47
2023-05-04T08:52:25.495Z,7.73
2023-05-04T08:54:57.077Z,9.27
2023-05-04T08:57:25.439Z,12.57
2023-05-04T08:59:53.737Z,9.33
2023-05-04T09:02:22.519Z,7.17
2023-05-04T09:04:53.657Z,7.60
2023-05-04T09:07:21.781Z,9.50
2023-05-04T09:09:51.026Z,10.23
2023-05-04T09:12:19.195Z,7.50
2023-05-04T09:14:49.449Z,7.73
2023-05-04T09:17:25.802Z,9.20
2023-05-04T09:20:01.276Z,7.30
2023-05-04T09:22:29.107Z,7.07
2023-05-04T09:25:16.425Z,8.80
2023-05-04T09:27:54.591Z,7.30
2023-05-04T09:30:22.145Z,6.10
2023-05-04T09:32:49.934Z,6.10
2023-05-04T09:35:32.012Z,6.63
2023-05-04T09:38:00.326Z,9.07
2023-05-04T09:40:42.260Z,7.20
2023-05-04T09:43:10.721Z,7.13
2023-05-04T09:45:42.260Z,6.20
2023-05-04T09:48:19.217Z,7.20
2023-05-04T09:50:54.668Z,8.10
2023-05-04T09:53:28.905Z,8.00
2023-05-04T09:56:27.454Z,6.43
2023-05-04T09:59:00.131Z,8.30
2023-05-04T10:01:30.312Z,6.43
2023-05-04T10:03:57.632Z,6.60
2023-05-04T10:06:24.884Z,5.73
2023-05-04T10:08:52.183Z,7.60
2023-05-04T10:11:20.235Z,7.10
2023-05-04T10:13:50.151Z,6.13
2023-05-04T10:16:26.108Z,7.03
2023-05-04T10:19:18.040Z,8.93
2023-05-04T10:21:44.807Z,5.97
2023-05-04T10:24:47.739Z,6.37
2023-05-04T10:27:18.741Z,6.30
2023-05-04T10:29:51.328Z,6.00
2023-05-04T10:32:22.338Z,6.07
2023-05-04T10:34:49.696Z,6.90
2023-05-04T10:37:18.530Z,7.60
2023-05-04T10:39:53.650Z,7.60
2023-05-04T10:42:21.409Z,6.20
2023-05-04T10:44:55.910Z,8.70
2023-05-04T10:47:35.841Z,5.97
2023-05-04T10:50:09.872Z,5.57
2023-05-04T10:52:48.438Z,5.57
2023-05-04T10:55:16.124Z,5.53
2023-05-04T10:57:49.811Z,6.90
2023-05-04T11:00:17.294Z,5.80
2023-05-04T11:02:47.068Z,5.70
2023-05-04T11:05:19.516Z,5.03
2023-05-04T11:07:50.771Z,5.27
2023-05-04T11:10:25.259Z,5.30
2023-05-04T11:12:55.082Z,5.50
2023-05-04T11:15:21.977Z,10.70
2023-05-04T11:17:50.614Z,7.23
2023-05-04T11:20:25.494Z,7.07
2023-05-04T11:22:53.209Z,6.83
2023-05-04T11:25:29.749Z,6.67
2023-05-04T11:27:57.430Z,5.57
2023-05-04T11:30:46.701Z,5.37
2023-05-04T11:33:15.778Z,8.20
2023-05-04T11:35:44.036Z,7.23
2023-05-04T11:38:11.520Z,5.97
2023-05-04T11:40:41.081Z,6.13
2023-05-04T11:43:11.247Z,7.33
2023-05-04T11:45:41.071Z,6.73
2023-05-04T11:48:09.700Z,6.30
2023-05-04T11:50:36.774Z,6.63
2023-05-04T11:53:12.031Z,9.10
2023-05-04T11:55:38.894Z,8.33
2023-05-04T11:58:14.623Z,6.37
2023-05-04T12:00:46.417Z,6.37
2023-05-04T12:03:15.753Z,12.23
2023-05-04T12:05:53.952Z,6.60
2023-05-04T12:08:35.951Z,7.50
2023-05-04T12:11:17.059Z,8.73
2023-05-04T12:13:45.530Z,7.00
2023-05-04T12:16:20.289Z,7.07
2023-05-04T12:18:48.623Z,8.33
2023-05-04T12:21:21.470Z,7.40
2023-05-04T12:23:48.380Z,7.13
2023-05-04T12:26:18.826Z,7.17
2023-05-04T12:28:47.289Z,7.13
2023-05-04T12:31:14.228Z,7.13
2023-05-04T12:33:41.087Z,6.10
2023-05-04T12:36:08.291Z,8.40
2023-05-04T12:38:35.231Z,6.50
2023-05-04T12:41:03.308Z,7.63
2023-05-04T12:43:33.390Z,7.23
2023-05-04T12:46:00.750Z,5.87
2023-05-04T12:48:32.902Z,7.17
2023-05-04T12:51:01.041Z,6.50
2023-05-04T12:53:30.062Z,10.37
2023-05-04T12:55:57.328Z,6.87
2023-05-04T12:58:24.219Z,9.40
2023-05-04T13:00:51.403Z,6.03
2023-05-04T13:03:18.746Z,6.77
2023-05-04T13:05:47.433Z,9.20
2023-05-04T13:08:14.281Z,7.57
2023-05-04T13:10:41.119Z,7.47
2023-05-04T13:13:07.990Z,7.40
2023-05-04T13:15:35.298Z,7.50
2023-05-04T13:18:02.120Z,7.77
2023-05-04T13:20:29.015Z,7.47
2023-05-04T13:22:58.178Z,8.17
2023-05-04T13:25:25.646Z,7.83
2023-05-04T13:27:52.951Z,6.77
2023-05-04T13:30:21.636Z,7.07
2023-05-04T13:32:49.336Z,7.23
2023-05-04T13:35:16.388Z,6.40
2023-05-04T13:37:43.189Z,7.30
2023-05-04T13:40:10.635Z,7.53
2023-05-04T13:42:37.735Z,7.30
2023-05-04T13:45:05.653Z,7.10
2023-05-04T13:47:34.465Z,6.43
2023-05-04T13:50:02.087Z,5.80
2023-05-04T13:52:29.019Z,6.37
2023-05-04T13:54:55.858Z,7.93
2023-05-04T13:57:22.740Z,7.30
2023-05-04T14:00:05.224Z,7.10
2023-05-04T14:02:34.132Z,8.30
2023-05-04T14:05:01.483Z,7.50
2023-05-04T14:07:28.406Z,9.53
2023-05-04T14:09:56.040Z,8.17
2023-05-04T14:12:22.928Z,11.03
2023-05-04T14:14:50.890Z,7.13
2023-05-04T14:17:18.340Z,9.47
2023-05-04T14:19:45.725Z,16.50
2023-05-04T14:22:12.632Z,9.50
2023-05-04T14:24:39.505Z,8.87
2023-05-04T14:27:06.319Z,6.63
2023-05-04T14:29:34.356Z,8.50
2023-05-04T14:32:01.593Z,7.40
2023-05-04T14:34:28.461Z,7.50
2023-05-04T14:36:55.510Z,8.60
2023-05-04T14:39:22.568Z,6.63
2023-05-04T14:41:49.545Z,9.07
2023-05-04T14:44:16.556Z,7.00
2023-05-04T14:46:43.426Z,8.43
2023-05-04T14:49:11.244Z,9.80
2023-05-04T14:51:43.230Z,12.13
2023-05-04T14:54:10.088Z,8.10
2023-05-04T14:56:36.932Z,8.20
2023-05-04T14:59:03.950Z,8.70
2023-05-04T15:01:31.306Z,10.00
2023-05-04T15:03:58.559Z,10.23
2023-05-04T15:06:27.303Z,7.83
2023-05-04T15:08:54.323Z,8.20
2023-05-04T15:11:21.509Z,12.20
2023-05-04T15:13:48.496Z,7.70
2023-05-04T15:16:17.835Z,9.23
2023-05-04T15:18:44.871Z,8.80
2023-05-04T15:21:12.026Z,8.60
2023-05-04T15:23:38.963Z,9.60
2023-05-04T15:26:06.284Z,8.97
2023-05-04T15:28:33.386Z,13.60
2023-05-04T15:31:01.951Z,6.57
2023-05-04T15:33:28.893Z,8.70
2023-05-04T15:35:55.837Z,11.07
2023-05-04T15:38:22.786Z,9.00
2023-05-04T15:40:49.919Z,10.00
2023-05-04T15:43:16.792Z,10.70
2023-05-04T15:45:44.004Z,21.00
2023-05-04T15:48:10.934Z,8.60
2023-05-04T15:50:37.945Z,9.63
2023-05-04T15:53:04.747Z,7.87
2023-05-04T15:55:32.435Z,9.90
2023-05-04T15:57:59.314Z,11.10
2023-05-04T16:00:26.952Z,11.20
2023-05-04T16:02:53.981Z,9.60
2023-05-04T16:05:20.925Z,8.47
2023-05-04T16:07:47.808Z,7.80
2023-05-04T16:10:14.713Z,8.60
2023-05-04T16:12:41.654Z,9.77
2023-05-04T16:15:08.867Z,14.27
2023-05-04T16:17:36.061Z,13.33
2023-05-04T16:20:04.387Z,8.57
2023-05-04T16:22:31.736Z,8.63
2023-05-04T16:24:58.751Z,12.33
2023-05-04T16:27:28.818Z,11.17
2023-05-04T16:29:55.987Z,8.87
2023-05-04T16:32:23.208Z,9.40
2023-05-04T16:34:50.064Z,9.20
2023-05-04T16:37:18.555Z,9.20
2023-05-04T16:39:45.898Z,9.53
2023-05-04T16:42:12.955Z,8.77
2023-05-04T16:44:40.063Z,10.50
2023-05-04T16:47:07.243Z,10.27
2023-05-04T16:49:34.403Z,9.17
2023-05-04T16:52:02.201Z,11.70
2023-05-04T16:54:29.114Z,10.50
2023-05-04T16:56:56.218Z,10.63
2023-05-04T16:59:23.369Z,11.20
2023-05-04T17:01:50.427Z,7.87
2023-05-04T17:04:17.332Z,8.97
2023-05-04T17:06:44.249Z,8.73
2023-05-04T17:09:11.332Z,8.20
2023-05-04T17:11:38.311Z,9.77
2023-05-04T17:14:05.401Z,8.93
2023-05-04T17:16:32.459Z,9.93
2023-05-04T17:18:59.496Z,9.47
2023-05-04T17:21:26.354Z,7.93
2023-05-04T17:23:53.310Z,8.70
2023-05-04T17:26:20.226Z,18.07
2023-05-04T17:28:47.102Z,7.97
2023-05-04T17:31:14.003Z,8.17
2023-05-04T17:33:40.990Z,7.53
2023-05-04T17:36:08.211Z,8.97
2023-05-04T17:38:35.109Z,9.53
2023-05-04T17:41:02.171Z,8.10
2023-05-04T17:43:28.981Z,7.90
2023-05-04T17:45:56.216Z,8.33
2023-05-04T17:48:24.150Z,11.10
2023-05-04T17:50:51.486Z,13.00
2023-05-04T17:53:18.292Z,7.30
2023-05-04T17:55:45.156Z,6.93
2023-05-04T17:58:11.979Z,11.63
2023-05-04T18:00:38.862Z,8.37
2023-05-04T18:03:05.719Z,8.90
2023-05-04T18:05:32.686Z,6.90
2023-05-04T18:07:59.555Z,9.17
2023-05-04T18:10:26.506Z,11.70
2023-05-04T18:12:53.410Z,8.83
2023-05-04T18:15:20.381Z,6.80
2023-05-04T18:17:48.632Z,8.40
2023-05-04T18:20:15.880Z,8.80
2023-05-04T18:22:42.720Z,8.43
2023-05-04T18:25:09.859Z,8.77
2023-05-04T18:27:36.901Z,8.77
2023-05-04T18:30:05.370Z,7.53
2023-05-04T18:32:32.695Z,16.87
2023-05-04T18:34:59.621Z,7.77
2023-05-04T18:37:26.777Z,12.10
2023-05-04T18:39:53.698Z,8.63
2023-05-04T18:42:20.525Z,9.60
2023-05-04T18:44:47.380Z,7.30
2023-05-04T18:47:14.509Z,10.03
2023-05-04T18:49:41.395Z,9.83
2023-05-04T18:52:08.325Z,7.33
2023-05-04T18:54:35.248Z,9.33
2023-05-04T18:57:03.453Z,11.27
2023-05-04T18:59:33.204Z,11.20
2023-05-04T19:02:00.167Z,7.50
2023-05-04T19:04:27.089Z,8.43
2023-05-04T19:06:54.220Z,11.00
2023-05-04T19:09:21.132Z,5.90
2023-05-04T19:11:48.015Z,8.50
2023-05-04T19:14:15.651Z,7.77
2023-05-04T19:16:42.575Z,7.90
2023-05-04T19:19:09.648Z,6.00
2023-05-04T19:21:36.571Z,5.67
2023-05-04T19:24:03.592Z,9.93
2023-05-04T19:26:30.456Z,6.83
2023-05-04T19:28:57.423Z,5.23
2023-05-04T19:31:24.534Z,8.70
2023-05-04T19:33:52.631Z,8.73
2023-05-04T19:36:19.529Z,6.23
2023-05-04T19:38:46.476Z,11.30
2023-05-04T19:41:13.948Z,7.13
2023-05-04T19:43:41.262Z,6.83
2023-05-04T19:46:08.474Z,9.10
2023-05-04T19:48:35.387Z,5.40
2023-05-04T19:51:02.519Z,9.00
2023-05-04T19:53:29.928Z,5.93
2023-05-04T19:55:56.800Z,13.73
2023-05-04T19:58:28.429Z,9.23
2023-05-04T20:00:55.283Z,8.90
2023-05-04T20:03:22.310Z,12.00
2023-05-04T20:05:51.451Z,11.07
2023-05-04T20:08:18.853Z,6.80
2023-05-04T20:10:45.696Z,7.73
2023-05-04T20:13:12.816Z,6.60
2023-05-04T20:15:39.758Z,9.87
2023-05-04T20:18:06.667Z,9.03
2023-05-04T20:20:33.582Z,9.77
2023-05-04T20:23:00.421Z,6.40
2023-05-04T20:25:27.716Z,5.63
2023-05-04T20:27:54.718Z,7.97
2023-05-04T20:30:21.664Z,8.90
2023-05-04T20:32:49.107Z,7.10
2023-05-04T20:35:16.598Z,4.90
2023-05-04T20:37:43.412Z,6.47
2023-05-04T20:40:10.806Z,6.83
2023-05-04T20:42:38.023Z,9.90
2023-05-04T20:45:05.860Z,6.67
2023-05-04T20:47:32.726Z,14.53
2023-05-04T20:49:59.655Z,5.70
2023-05-04T20:52:27.143Z,8.30
2023-05-04T20:54:54.842Z,8.40
2023-05-04T20:57:21.752Z,8.80
2023-05-04T20:59:48.765Z,6.13
2023-05-04T21:02:15.720Z,6.53
2023-05-04T21:04:43.442Z,9.20
2023-05-04T21:07:10.352Z,11.13
2023-05-04T21:09:37.219Z,5.53
2023-05-04T21:12:04.330Z,6.17
2023-05-04T21:14:31.275Z,9.20
2023-05-04T21:16:58.183Z,6.87
2023-05-04T21:19:24.986Z,17.93
2023-05-04T21:21:52.446Z,6.07
2023-05-04T21:24:19.342Z,6.33
2023-05-04T21:26:46.401Z,6.07
2023-05-04T21:29:13.544Z,7.67
2023-05-04T21:31:41.255Z,10.10
2023-05-04T21:34:08.187Z,8.97
2023-05-04T21:36:35.569Z,8.50
2023-05-04T21:39:02.418Z,10.47
2023-05-04T21:41:29.326Z,7.70
2023-05-04T21:43:56.374Z,5.27
2023-05-04T21:46:23.324Z,8.17
2023-05-04T21:48:51.746Z,5.40
2023-05-04T21:51:20.822Z,8.13
2023-05-04T21:53:48.225Z,7.90
2023-05-04T21:56:15.130Z,6.60
2023-05-04T21:58:42.952Z,7.70
2023-05-04T22:01:14.861Z,10.20
2023-05-04T22:03:41.738Z,7.70
2023-05-04T22:06:08.868Z,8.57
2023-05-04T22:08:36.015Z,7.30
2023-05-04T22:11:02.899Z,11.00
2023-05-04T22:13:29.832Z,8.57
2023-05-04T22:15:56.809Z,6.77
2023-05-04T22:18:23.902Z,8.70
2023-05-04T22:20:50.950Z,7.70
2023-05-04T22:23:18.013Z,8.87
2023-05-04T22:25:44.982Z,7.90
2023-05-04T22:28:11.959Z,15.73
2023-05-04T22:30:39.045Z,7.47
2023-05-04T22:33:06.151Z,6.00
2023-05-04T22:35:33.399Z,8.80
2023-05-04T22:38:00.337Z,16.10
2023-05-04T22:40:27.438Z,6.17
2023-05-04T22:42:54.352Z,11.30
2023-05-04T22:45:21.436Z,8.20
2023-05-04T22:47:48.428Z,6.90
2023-05-04T22:50:15.600Z,6.87
2023-05-04T22:52:42.653Z,5.97
2023-05-04T22:55:10.030Z,7.53
2023-05-04T22:57:36.930Z,7.00
2023-05-04T23:00:07.862Z,7.00
2023-05-04T23:02:35.684Z,8.13
2023-05-04T23:05:02.828Z,6.57
2023-05-04T23:07:29.874Z,7.70
2023-05-04T23:09:56.812Z,6.30
2023-05-04T23:12:23.983Z,8.43
2023-05-04T23:14:54.859Z,9.83
2023-05-04T23:17:22.325Z,7.33
2023-05-04T23:19:49.355Z,7.50
2023-05-04T23:22:16.847Z,9.43
2023-05-04T23:24:43.850Z,8.90
2023-05-04T23:27:11.539Z,6.03
2023-05-04T23:29:38.616Z,10.83
2023-05-04T23:32:05.959Z,7.83
2023-05-04T23:34:32.925Z,6.00
2023-05-04T23:36:59.893Z,14.43
2023-05-04T23:39:27.522Z,6.97
2023-05-04T23:41:54.465Z,10.30
2023-05-04T23:44:21.491Z,11.77
2023-05-04T23:46:48.464Z,8.60
2023-05-04T23:49:15.568Z,8.90
2023-05-04T23:51:42.563Z,7.33
2023-05-04T23:54:09.528Z,8.13
2023-05-04T23:56:36.395Z,9.27
2023-05-04T23:59:04.203Z,8.87
